This is the latest recevied weather packets stored in our database for station/object N9CQL. If no packets are shown the sender has not sent any weather packets the latest 10 day(s).
| Time | Temp. | Humidity | Pressure | Rain* | Wind** | Luminosity | Snow |
|---|---|---|---|---|---|---|---|
| 1777762569 | 14.44° C | 40% | 1015.4 hPa | 0 mm | - | 161 W/m² | - |
| 1777762267 | 13.89° C | 38% | 1015.3 hPa | 0 mm | - | 178 W/m² | - |
| 1777761963 | 14.44° C | 38% | 1015.5 hPa | 0 mm | - | 101 W/m² | - |
| 1777761660 | 13.89° C | 41% | 1015.5 hPa | 0 mm | - | 99 W/m² | - |
| 1777761358 | 14.44° C | 40% | 1015.7 hPa | 0 mm | - | 89 W/m² | - |
| 1777761056 | 13.33° C | 42% | 1015.4 hPa | 0 mm | - | 271 W/m² | - |
| 1777760753 | 13.33° C | 41% | 1015.4 hPa | 0 mm | - | 318 W/m² | - |
| 1777760449 | 13.33° C | 43% | 1015.5 hPa | 0 mm | - | 129 W/m² | - |
| 1777760145 | 12.78° C | 42% | 1015.7 hPa | 0 mm | - | 87 W/m² | - |
| 1777759842 | 12.78° C | 42% | 1015.6 hPa | 0 mm | - | 94 W/m² | - |
| 1777759538 | 12.78° C | 41% | 1015.4 hPa | 0 mm | - | 98 W/m² | - |
| 1777759235 | 12.78° C | 42% | 1015.6 hPa | 0 mm | - | 109 W/m² | - |
| 1777758932 | 13.33° C | 42% | 1015.6 hPa | 0 mm | - | 110 W/m² | - |
| 1777758629 | 13.33° C | 40% | 1015.7 hPa | 0 mm | - | 305 W/m² | - |
| 1777758326 | 12.78° C | 42% | 1015.9 hPa | 0 mm | - | 134 W/m² | - |
| 1777758024 | 12.78° C | 43% | 1015.8 hPa | 0 mm | - | 120 W/m² | - |
| 1777757720 | 12.78° C | 41% | 1015.8 hPa | 0 mm | - | 96 W/m² | - |
| 1777757418 | 12.78° C | 41% | 1015.8 hPa | 0 mm | - | 103 W/m² | - |
| 1777757117 | 12.78° C | 40% | 1015.7 hPa | 0 mm | - | 98 W/m² | - |
| 1777756814 | 12.78° C | 40% | 1015.8 hPa | 0 mm | - | 100 W/m² | - |
| 1777756509 | 13.33° C | 40% | 1015.8 hPa | 0 mm | - | 115 W/m² | - |
| 1777756207 | 14.44° C | 38% | 1015.8 hPa | 0 mm | - | 140 W/m² | - |
| 1777755904 | 12.78° C | 41% | 1016.1 hPa | 0 mm | - | 573 W/m² | - |
| 1777755601 | 12.78° C | 41% | 1015.8 hPa | 0 mm | - | 108 W/m² | - |
| 1777755296 | 12.78° C | 41% | 1016.1 hPa | 0 mm | - | 101 W/m² | - |
* Rain latest hour (hover to see other rain measurements)
** Current wind speed in m/s (hover to see current wind gust speed)